Time;durP1;ratioP1;P1;durP2;ratioP2;P2;SDS_P1;SDS_P2;PMS_P1;PMS_P2;Temp;Humidity;BMP_temperature;BMP_pressure;BME280_temperature;BME280_humidity;BME280_pressure;Samples;Min_cycle;Max_cycle;Signal;HPM_P1;HPM_P2
2022/06/27 19:17:14;;;;;;;5.80;1.67;;;19.20;85.50;;;;;;5073367;28;20433;-52
2022/06/27 19:19:41;;;;;;;7.88;2.00;;;19.00;86.00;;;;;;5059676;28;20477;-53
2022/06/27 19:22:09;;;;;;;6.38;2.28;;;18.90;86.20;;;;;;5070331;28;20044;-52
2022/06/27 19:24:36;;;;;;;8.65;2.00;;;18.90;86.60;;;;;;5071378;28;20045;-55
2022/06/27 19:27:03;;;;;;;8.05;2.05;;;18.90;87.20;;;;;;5060526;28;20037;-51
2022/06/27 19:29:32;;;;;;;9.10;2.35;;;18.90;86.60;;;;;;5051333;28;20049;-49
2022/06/27 19:31:58;;;;;;;5.95;1.83;;;18.80;87.30;;;;;;5050593;28;20561;-54
2022/06/27 19:34:25;;;;;;;7.03;2.70;;;18.80;86.40;;;;;;5050923;28;20052;-50
2022/06/27 19:36:52;;;;;;;10.95;2.20;;;18.80;86.70;;;;;;5053669;28;20499;-54
2022/06/27 19:39:19;;;;;;;9.20;1.90;;;18.80;87.10;;;;;;5070455;28;20400;-53
2022/06/27 19:41:50;;;;;;;7.15;1.70;;;18.80;87.40;;;;;;5070399;28;20114;-55
2022/06/27 19:44:17;;;;;;;8.45;1.90;;;18.80;87.50;;;;;;5054150;28;20049;-49
2022/06/27 19:46:43;;;;;;;8.70;1.90;;;18.70;87.00;;;;;;5050544;28;20044;-55
2022/06/27 19:49:11;;;;;;;7.60;2.50;;;18.70;87.40;;;;;;5057847;28;20049;-51
2022/06/27 19:51:38;;;;;;;10.95;2.65;;;18.60;87.50;;;;;;5053036;28;20041;-56
2022/06/27 19:54:05;;;;;;;14.55;2.92;;;18.50;88.00;;;;;;5067411;28;20076;-52
2022/06/27 19:56:32;;;;;;;7.65;2.00;;;18.50;88.10;;;;;;5050532;28;20441;-49
2022/06/27 19:58:58;;;;;;;12.23;2.80;;;18.40;88.60;;;;;;5050376;28;20044;-53
2022/06/27 20:01:25;;;;;;;12.25;2.40;;;18.30;88.80;;;;;;5050245;28;20099;-56
2022/06/27 20:03:52;;;;;;;14.95;2.53;;;18.20;89.10;;;;;;5050121;28;20099;-53
2022/06/27 20:06:19;;;;;;;11.30;2.35;;;18.10;89.20;;;;;;5050126;28;20065;-50
2022/06/27 20:08:46;;;;;;;11.02;3.00;;;18.00;89.90;;;;;;5050082;28;20052;-52
2022/06/27 20:11:13;;;;;;;9.88;2.47;;;17.90;90.00;;;;;;5050168;28;20096;-49
2022/06/27 20:13:42;;;;;;;8.65;2.25;;;17.80;90.20;;;;;;5057452;28;20037;-46
2022/06/27 20:16:09;;;;;;;13.30;2.65;;;17.70;90.30;;;;;;5068609;28;20376;-54
2022/06/27 20:18:39;;;;;;;11.15;2.30;;;17.70;90.30;;;;;;5068821;28;20040;-48
2022/06/27 20:21:06;;;;;;;10.10;2.25;;;17.60;90.50;;;;;;5067668;28;20051;-48
2022/06/27 20:23:32;;;;;;;11.68;2.75;;;17.60;90.50;;;;;;5068920;28;20037;-52
2022/06/27 20:25:59;;;;;;;13.50;2.63;;;17.50;90.70;;;;;;5068747;28;20045;-50
2022/06/27 20:28:26;;;;;;;12.07;2.97;;;17.40;90.50;;;;;;5056614;28;20041;-45
2022/06/27 20:30:53;;;;;;;12.80;2.15;;;17.40;90.80;;;;;;5055461;28;20096;-44
2022/06/27 20:33:19;;;;;;;13.50;2.60;;;17.30;90.90;;;;;;5055226;28;20045;-49
2022/06/27 20:35:46;;;;;;;10.80;2.30;;;17.30;90.80;;;;;;5055585;28;20365;-52
2022/06/27 20:38:13;;;;;;;14.70;2.45;;;17.20;91.00;;;;;;5055611;28;20048;-49
2022/06/27 20:40:40;;;;;;;11.40;2.63;;;17.20;91.10;;;;;;5055673;28;20551;-51
2022/06/27 20:43:06;;;;;;;15.15;2.45;;;17.10;91.10;;;;;;5055477;28;20037;-52
2022/06/27 20:45:33;;;;;;;14.45;2.58;;;17.00;91.10;;;;;;5053352;28;20041;-50
2022/06/27 20:48:00;;;;;;;9.30;2.40;;;17.00;91.40;;;;;;5035558;28;20049;-50
2022/06/27 20:50:27;;;;;;;11.57;2.58;;;17.00;91.40;;;;;;5041512;28;20042;-51
2022/06/27 20:52:53;;;;;;;11.13;2.30;;;16.90;91.50;;;;;;5054798;28;20489;-51
2022/06/27 20:55:20;;;;;;;13.52;2.65;;;16.90;91.40;;;;;;5054751;28;20492;-50
2022/06/27 20:57:47;;;;;;;9.20;2.38;;;16.80;91.60;;;;;;5054894;28;20040;-50
2022/06/27 21:00:13;;;;;;;12.45;2.45;;;16.80;91.60;;;;;;5055017;28;20044;-54
2022/06/27 21:02:40;;;;;;;12.02;2.30;;;16.80;91.60;;;;;;5054185;28;20102;-57
2022/06/27 21:05:08;;;;;;;11.70;2.55;;;16.80;91.70;;;;;;5037523;28;20488;-48
2022/06/27 21:11:47;;;;;;;10.07;2.80;;;16.70;91.80;;;;;;5035712;28;20045;-50
2022/06/27 21:13:06;;;;;;;13.07;2.67;;;16.60;91.90;;;;;;5054626;28;20052;-50
2022/06/27 21:15:33;;;;;;;12.10;2.83;;;16.50;92.10;;;;;;5052880;28;20045;-47
2022/06/27 21:18:00;;;;;;;9.90;2.17;;;16.50;92.30;;;;;;5051382;28;20492;-48
2022/06/27 21:20:27;;;;;;;9.43;2.20;;;16.40;92.10;;;;;;5035392;28;20037;-50
2022/06/27 21:22:53;;;;;;;13.48;2.53;;;16.40;92.20;;;;;;5045871;28;20496;-50
2022/06/27 21:25:23;;;;;;;11.00;2.10;;;16.30;92.40;;;;;;5046541;28;20052;-49
2022/06/27 21:27:50;;;;;;;12.50;2.70;;;16.30;92.70;;;;;;5049083;28;20033;-51
2022/06/27 21:30:17;;;;;;;8.38;2.20;;;16.20;92.60;;;;;;5044816;28;20040;-45
2022/06/27 21:32:43;;;;;;;14.32;2.30;;;16.20;92.70;;;;;;5036535;28;20139;-50
2022/06/27 21:35:11;;;;;;;11.15;2.33;;;16.20;92.80;;;;;;5035161;28;20037;-49
2022/06/27 21:37:37;;;;;;;10.43;2.17;;;16.10;92.70;;;;;;5039620;28;20037;-54
2022/06/27 21:40:04;;;;;;;13.02;2.22;;;16.10;92.80;;;;;;5033897;28;20046;-51
2022/06/27 21:42:31;;;;;;;12.23;2.50;;;16.00;92.80;;;;;;5049212;28;20071;-51
2022/06/27 21:44:57;;;;;;;11.23;2.60;;;16.00;93.00;;;;;;5054096;28;20041;-47
2022/06/27 21:47:24;;;;;;;8.27;2.50;;;15.90;93.10;;;;;;5053741;28;20098;-54
2022/06/27 21:49:51;;;;;;;9.15;3.08;;;15.90;93.30;;;;;;5053863;28;20041;-49
2022/06/27 21:55:04;;;;;;;15.10;2.45;;;15.70;93.40;;;;;;5053627;28;20131;-54
2022/06/27 21:57:30;;;;;;;15.07;2.30;;;15.70;93.60;;;;;;5053678;28;20064;-51
2022/06/27 21:59:57;;;;;;;11.38;2.28;;;15.70;93.40;;;;;;5053568;28;20062;-52
2022/06/27 22:02:25;;;;;;;12.25;2.45;;;15.70;93.50;;;;;;5053592;28;20040;-53
2022/06/27 22:04:52;;;;;;;13.68;2.30;;;15.60;93.60;;;;;;5053398;28;20040;-49
2022/06/27 22:07:18;;;;;;;13.45;2.45;;;15.60;93.80;;;;;;5053250;28;20531;-49
2022/06/27 22:09:45;;;;;;;10.40;2.60;;;15.50;93.80;;;;;;5052125;28;20053;-55
2022/06/27 22:12:12;;;;;;;7.90;2.20;;;15.50;93.70;;;;;;5053235;28;20057;-52
2022/06/27 22:14:39;;;;;;;11.52;2.30;;;15.50;93.80;;;;;;5053339;28;20044;-51
2022/06/27 22:17:05;;;;;;;11.45;2.20;;;15.40;93.80;;;;;;5053189;28;20610;-49
2022/06/27 22:19:32;;;;;;;12.75;2.58;;;15.40;94.00;;;;;;5051453;28;20048;-51
2022/06/27 22:21:59;;;;;;;13.93;2.55;;;15.30;94.10;;;;;;5047331;28;20037;-52
2022/06/27 22:24:25;;;;;;;9.35;2.22;;;15.30;94.20;;;;;;5053034;28;20044;-50
2022/06/27 22:26:52;;;;;;;12.15;2.50;;;15.30;94.20;;;;;;5053110;28;20111;-52
2022/06/27 22:29:19;;;;;;;10.82;2.38;;;15.20;94.30;;;;;;5051789;28;20048;-52
2022/06/27 22:31:46;;;;;;;12.98;2.72;;;15.20;94.30;;;;;;5051670;28;20049;-52
2022/06/27 22:34:12;;;;;;;10.45;2.80;;;15.20;94.40;;;;;;5051691;28;20048;-54
2022/06/27 22:36:39;;;;;;;15.50;2.63;;;15.10;94.40;;;;;;5045849;28;20537;-53
2022/06/27 22:39:07;;;;;;;9.80;2.20;;;15.10;94.70;;;;;;5033863;28;20033;-50
2022/06/27 22:41:34;;;;;;;11.18;2.33;;;15.00;94.70;;;;;;5033591;28;20515;-49
